sensor_id;sensor_type;location;lat;lon;timestamp;P1;durP1;ratioP1;P2;durP2;ratioP2
48363;SDS011;34170;54.364;18.582;2022-09-09T00:00:23;2.20;;;0.82;;
48363;SDS011;34170;54.364;18.582;2022-09-09T00:03:19;6.50;;;1.00;;
48363;SDS011;34170;54.364;18.582;2022-09-09T00:09:12;4.28;;;1.13;;
48363;SDS011;34170;54.364;18.582;2022-09-09T00:11:42;3.40;;;1.20;;
48363;SDS011;34170;54.364;18.582;2022-09-09T00:16:55;2.35;;;0.90;;
48363;SDS011;34170;54.364;18.582;2022-09-09T00:19:38;6.55;;;1.20;;
48363;SDS011;34170;54.364;18.582;2022-09-09T00:22:17;2.10;;;1.20;;
48363;SDS011;34170;54.364;18.582;2022-09-09T00:24:49;4.18;;;1.10;;
48363;SDS011;34170;54.364;18.582;2022-09-09T00:30:19;6.63;;;1.60;;
48363;SDS011;34170;54.364;18.582;2022-09-09T00:32:50;2.83;;;1.05;;
48363;SDS011;34170;54.364;18.582;2022-09-09T00:35:27;4.25;;;1.10;;
48363;SDS011;34170;54.364;18.582;2022-09-09T00:38:00;1.90;;;0.73;;
48363;SDS011;34170;54.364;18.582;2022-09-09T00:40:41;4.93;;;1.40;;
48363;SDS011;34170;54.364;18.582;2022-09-09T00:43:29;3.33;;;0.88;;
48363;SDS011;34170;54.364;18.582;2022-09-09T00:48:45;2.10;;;0.85;;
48363;SDS011;34170;54.364;18.582;2022-09-09T00:51:28;4.13;;;1.13;;
48363;SDS011;34170;54.364;18.582;2022-09-09T00:56:37;2.45;;;1.00;;
48363;SDS011;34170;54.364;18.582;2022-09-09T00:59:18;3.17;;;1.00;;
48363;SDS011;34170;54.364;18.582;2022-09-09T01:02:25;5.28;;;0.90;;
48363;SDS011;34170;54.364;18.582;2022-09-09T01:04:57;2.53;;;0.88;;
48363;SDS011;34170;54.364;18.582;2022-09-09T01:07:34;8.23;;;0.90;;
48363;SDS011;34170;54.364;18.582;2022-09-09T01:10:04;4.05;;;1.02;;
48363;SDS011;34170;54.364;18.582;2022-09-09T01:12:42;3.03;;;0.77;;
48363;SDS011;34170;54.364;18.582;2022-09-09T01:15:21;2.13;;;0.70;;
48363;SDS011;34170;54.364;18.582;2022-09-09T01:18:05;2.30;;;0.77;;
48363;SDS011;34170;54.364;18.582;2022-09-09T01:20:46;4.32;;;1.08;;
48363;SDS011;34170;54.364;18.582;2022-09-09T01:26:26;3.55;;;0.90;;
48363;SDS011;34170;54.364;18.582;2022-09-09T01:28:59;3.83;;;1.13;;
48363;SDS011;34170;54.364;18.582;2022-09-09T01:31:32;5.70;;;1.02;;
48363;SDS011;34170;54.364;18.582;2022-09-09T01:34:14;3.50;;;1.00;;
48363;SDS011;34170;54.364;18.582;2022-09-09T01:39:13;2.47;;;0.90;;
48363;SDS011;34170;54.364;18.582;2022-09-09T01:41:42;2.55;;;0.98;;
48363;SDS011;34170;54.364;18.582;2022-09-09T01:44:12;4.60;;;1.20;;
48363;SDS011;34170;54.364;18.582;2022-09-09T01:46:43;3.83;;;0.95;;
48363;SDS011;34170;54.364;18.582;2022-09-09T01:49:15;3.20;;;1.00;;
48363;SDS011;34170;54.364;18.582;2022-09-09T01:51:43;2.22;;;0.82;;
48363;SDS011;34170;54.364;18.582;2022-09-09T01:54:17;2.60;;;0.90;;
48363;SDS011;34170;54.364;18.582;2022-09-09T01:56:51;1.52;;;0.90;;
48363;SDS011;34170;54.364;18.582;2022-09-09T02:08:07;2.55;;;0.90;;
48363;SDS011;34170;54.364;18.582;2022-09-09T02:14:00;6.07;;;1.25;;
48363;SDS011;34170;54.364;18.582;2022-09-09T02:16:45;3.53;;;0.95;;
48363;SDS011;34170;54.364;18.582;2022-09-09T02:19:28;5.85;;;1.38;;
48363;SDS011;34170;54.364;18.582;2022-09-09T02:22:07;3.03;;;0.90;;
48363;SDS011;34170;54.364;18.582;2022-09-09T02:24:37;3.03;;;1.23;;
48363;SDS011;34170;54.364;18.582;2022-09-09T02:27:14;8.38;;;1.27;;
48363;SDS011;34170;54.364;18.582;2022-09-09T02:29:44;4.22;;;0.88;;
48363;SDS011;34170;54.364;18.582;2022-09-09T02:32:17;6.45;;;1.20;;
48363;SDS011;34170;54.364;18.582;2022-09-09T02:34:53;4.07;;;1.38;;
48363;SDS011;34170;54.364;18.582;2022-09-09T02:37:27;3.70;;;1.13;;
48363;SDS011;34170;54.364;18.582;2022-09-09T02:39:59;2.03;;;0.82;;
48363;SDS011;34170;54.364;18.582;2022-09-09T02:42:26;6.70;;;1.35;;
48363;SDS011;34170;54.364;18.582;2022-09-09T02:44:55;3.33;;;1.42;;
48363;SDS011;34170;54.364;18.582;2022-09-09T02:47:25;2.42;;;1.10;;
48363;SDS011;34170;54.364;18.582;2022-09-09T02:53:30;4.30;;;1.42;;
48363;SDS011;34170;54.364;18.582;2022-09-09T02:55:54;3.78;;;0.93;;
48363;SDS011;34170;54.364;18.582;2022-09-09T02:58:26;2.40;;;1.00;;
48363;SDS011;34170;54.364;18.582;2022-09-09T03:01:02;5.90;;;1.40;;
48363;SDS011;34170;54.364;18.582;2022-09-09T03:03:30;2.72;;;1.00;;
48363;SDS011;34170;54.364;18.582;2022-09-09T03:08:29;5.93;;;1.10;;
48363;SDS011;34170;54.364;18.582;2022-09-09T03:10:58;3.42;;;1.40;;
48363;SDS011;34170;54.364;18.582;2022-09-09T03:13:31;2.80;;;1.00;;
48363;SDS011;34170;54.364;18.582;2022-09-09T03:15:58;4.72;;;1.35;;
48363;SDS011;34170;54.364;18.582;2022-09-09T03:18:28;4.75;;;1.10;;
48363;SDS011;34170;54.364;18.582;2022-09-09T03:20:56;5.03;;;1.35;;
48363;SDS011;34170;54.364;18.582;2022-09-09T03:23:27;4.68;;;1.42;;
48363;SDS011;34170;54.364;18.582;2022-09-09T03:25:56;5.68;;;1.45;;
48363;SDS011;34170;54.364;18.582;2022-09-09T03:28:34;4.82;;;1.77;;
48363;SDS011;34170;54.364;18.582;2022-09-09T03:31:03;7.72;;;2.10;;
48363;SDS011;34170;54.364;18.582;2022-09-09T03:33:37;7.28;;;3.00;;
48363;SDS011;34170;54.364;18.582;2022-09-09T03:36:06;7.25;;;3.40;;
48363;SDS011;34170;54.364;18.582;2022-09-09T03:38:35;8.98;;;4.18;;
48363;SDS011;34170;54.364;18.582;2022-09-09T03:41:03;10.32;;;5.13;;
48363;SDS011;34170;54.364;18.582;2022-09-09T03:43:33;9.27;;;4.90;;
48363;SDS011;34170;54.364;18.582;2022-09-09T03:46:01;12.95;;;5.78;;
48363;SDS011;34170;54.364;18.582;2022-09-09T03:48:29;13.13;;;6.00;;
48363;SDS011;34170;54.364;18.582;2022-09-09T03:50:58;13.23;;;6.45;;
48363;SDS011;34170;54.364;18.582;2022-09-09T03:53:29;12.93;;;7.20;;
48363;SDS011;34170;54.364;18.582;2022-09-09T03:55:57;11.23;;;5.88;;
48363;SDS011;34170;54.364;18.582;2022-09-09T03:58:27;12.30;;;6.30;;
48363;SDS011;34170;54.364;18.582;2022-09-09T04:01:04;14.57;;;6.90;;
48363;SDS011;34170;54.364;18.582;2022-09-09T04:03:37;16.65;;;6.90;;
48363;SDS011;34170;54.364;18.582;2022-09-09T04:06:04;13.73;;;6.35;;
48363;SDS011;34170;54.364;18.582;2022-09-09T04:08:34;12.68;;;6.70;;
48363;SDS011;34170;54.364;18.582;2022-09-09T04:11:03;12.23;;;6.82;;
48363;SDS011;34170;54.364;18.582;2022-09-09T04:13:35;9.43;;;6.07;;
48363;SDS011;34170;54.364;18.582;2022-09-09T04:16:10;10.00;;;6.25;;
48363;SDS011;34170;54.364;18.582;2022-09-09T04:18:39;12.40;;;6.30;;
48363;SDS011;34170;54.364;18.582;2022-09-09T04:21:07;11.68;;;7.18;;
48363;SDS011;34170;54.364;18.582;2022-09-09T04:23:37;17.77;;;7.63;;
48363;SDS011;34170;54.364;18.582;2022-09-09T04:26:05;12.25;;;7.28;;
48363;SDS011;34170;54.364;18.582;2022-09-09T04:28:34;12.90;;;7.47;;
48363;SDS011;34170;54.364;18.582;2022-09-09T04:31:10;14.73;;;7.75;;
48363;SDS011;34170;54.364;18.582;2022-09-09T04:33:44;14.27;;;7.18;;
48363;SDS011;34170;54.364;18.582;2022-09-09T04:36:13;12.45;;;7.00;;
48363;SDS011;34170;54.364;18.582;2022-09-09T04:38:41;10.98;;;7.07;;
48363;SDS011;34170;54.364;18.582;2022-09-09T04:41:08;11.57;;;7.95;;
48363;SDS011;34170;54.364;18.582;2022-09-09T04:43:40;12.63;;;7.80;;
48363;SDS011;34170;54.364;18.582;2022-09-09T04:46:08;10.02;;;6.63;;
48363;SDS011;34170;54.364;18.582;2022-09-09T04:48:35;12.88;;;8.68;;
48363;SDS011;34170;54.364;18.582;2022-09-09T04:51:06;11.18;;;7.55;;
48363;SDS011;34170;54.364;18.582;2022-09-09T04:53:36;14.17;;;7.37;;
48363;SDS011;34170;54.364;18.582;2022-09-09T04:56:05;12.07;;;7.65;;
48363;SDS011;34170;54.364;18.582;2022-09-09T04:58:42;15.75;;;8.82;;
48363;SDS011;34170;54.364;18.582;2022-09-09T05:01:11;14.88;;;8.50;;
48363;SDS011;34170;54.364;18.582;2022-09-09T05:03:50;13.82;;;8.13;;
48363;SDS011;34170;54.364;18.582;2022-09-09T05:06:20;13.75;;;7.60;;
48363;SDS011;34170;54.364;18.582;2022-09-09T05:08:52;13.73;;;7.47;;
48363;SDS011;34170;54.364;18.582;2022-09-09T05:11:27;15.50;;;8.10;;
48363;SDS011;34170;54.364;18.582;2022-09-09T05:14:01;15.07;;;7.38;;
48363;SDS011;34170;54.364;18.582;2022-09-09T05:16:30;16.40;;;7.68;;
48363;SDS011;34170;54.364;18.582;2022-09-09T05:18:58;14.57;;;7.18;;
48363;SDS011;34170;54.364;18.582;2022-09-09T05:21:34;14.30;;;7.78;;
48363;SDS011;34170;54.364;18.582;2022-09-09T05:24:01;16.17;;;8.30;;
48363;SDS011;34170;54.364;18.582;2022-09-09T05:26:28;18.08;;;8.27;;
48363;SDS011;34170;54.364;18.582;2022-09-09T05:29:00;15.63;;;8.75;;
48363;SDS011;34170;54.364;18.582;2022-09-09T05:31:29;13.52;;;8.40;;
48363;SDS011;34170;54.364;18.582;2022-09-09T05:34:01;12.65;;;8.88;;
48363;SDS011;34170;54.364;18.582;2022-09-09T05:36:29;16.45;;;8.48;;
48363;SDS011;34170;54.364;18.582;2022-09-09T05:38:56;13.05;;;7.55;;
48363;SDS011;34170;54.364;18.582;2022-09-09T05:41:26;15.60;;;8.38;;
48363;SDS011;34170;54.364;18.582;2022-09-09T05:43:55;13.35;;;8.90;;
48363;SDS011;34170;54.364;18.582;2022-09-09T05:46:24;11.27;;;7.25;;
48363;SDS011;34170;54.364;18.582;2022-09-09T05:48:53;14.73;;;7.75;;
48363;SDS011;34170;54.364;18.582;2022-09-09T05:51:28;12.13;;;6.90;;
48363;SDS011;34170;54.364;18.582;2022-09-09T05:54:04;10.48;;;5.95;;
48363;SDS011;34170;54.364;18.582;2022-09-09T05:56:35;10.52;;;5.75;;
48363;SDS011;34170;54.364;18.582;2022-09-09T05:59:05;12.18;;;5.82;;
48363;SDS011;34170;54.364;18.582;2022-09-09T06:01:34;12.25;;;5.80;;
48363;SDS011;34170;54.364;18.582;2022-09-09T06:04:04;9.98;;;5.97;;
48363;SDS011;34170;54.364;18.582;2022-09-09T06:06:33;7.90;;;5.32;;
48363;SDS011;34170;54.364;18.582;2022-09-09T06:09:25;12.90;;;6.20;;
48363;SDS011;34170;54.364;18.582;2022-09-09T06:11:52;10.55;;;6.10;;
48363;SDS011;34170;54.364;18.582;2022-09-09T06:14:22;8.85;;;6.15;;
48363;SDS011;34170;54.364;18.582;2022-09-09T06:16:51;10.80;;;5.85;;
48363;SDS011;34170;54.364;18.582;2022-09-09T06:19:23;10.05;;;5.40;;
48363;SDS011;34170;54.364;18.582;2022-09-09T06:21:55;11.00;;;5.97;;
48363;SDS011;34170;54.364;18.582;2022-09-09T06:24:22;10.15;;;6.63;;
48363;SDS011;34170;54.364;18.582;2022-09-09T06:26:50;10.98;;;6.00;;
48363;SDS011;34170;54.364;18.582;2022-09-09T06:31:50;7.72;;;4.90;;
48363;SDS011;34170;54.364;18.582;2022-09-09T06:34:21;7.82;;;4.85;;
48363;SDS011;34170;54.364;18.582;2022-09-09T06:36:56;8.63;;;5.32;;
48363;SDS011;34170;54.364;18.582;2022-09-09T06:39:36;5.78;;;4.45;;
48363;SDS011;34170;54.364;18.582;2022-09-09T06:42:03;8.63;;;5.32;;
48363;SDS011;34170;54.364;18.582;2022-09-09T06:44:54;9.07;;;4.75;;
48363;SDS011;34170;54.364;18.582;2022-09-09T06:47:29;7.50;;;4.72;;
48363;SDS011;34170;54.364;18.582;2022-09-09T06:49:57;7.43;;;4.93;;
48363;SDS011;34170;54.364;18.582;2022-09-09T06:52:25;10.63;;;5.47;;
48363;SDS011;34170;54.364;18.582;2022-09-09T06:54:54;7.28;;;5.45;;
48363;SDS011;34170;54.364;18.582;2022-09-09T06:57:22;11.73;;;4.90;;
48363;SDS011;34170;54.364;18.582;2022-09-09T07:00:11;6.65;;;4.90;;
48363;SDS011;34170;54.364;18.582;2022-09-09T07:02:41;8.43;;;4.50;;
48363;SDS011;34170;54.364;18.582;2022-09-09T07:05:09;8.80;;;4.68;;
48363;SDS011;34170;54.364;18.582;2022-09-09T07:07:38;7.43;;;4.15;;
48363;SDS011;34170;54.364;18.582;2022-09-09T07:10:06;7.65;;;4.82;;
48363;SDS011;34170;54.364;18.582;2022-09-09T07:12:36;7.32;;;4.85;;
48363;SDS011;34170;54.364;18.582;2022-09-09T07:15:05;9.02;;;5.13;;
48363;SDS011;34170;54.364;18.582;2022-09-09T07:17:33;8.27;;;4.63;;
48363;SDS011;34170;54.364;18.582;2022-09-09T07:20:00;5.95;;;4.53;;
48363;SDS011;34170;54.364;18.582;2022-09-09T07:22:30;6.80;;;4.57;;
48363;SDS011;34170;54.364;18.582;2022-09-09T07:24:57;12.60;;;5.45;;
48363;SDS011;34170;54.364;18.582;2022-09-09T07:27:25;8.23;;;4.75;;
48363;SDS011;34170;54.364;18.582;2022-09-09T07:29:52;10.13;;;4.53;;
48363;SDS011;34170;54.364;18.582;2022-09-09T07:32:21;8.95;;;4.97;;
48363;SDS011;34170;54.364;18.582;2022-09-09T07:34:48;8.30;;;4.80;;
48363;SDS011;34170;54.364;18.582;2022-09-09T07:37:17;9.75;;;5.97;;
48363;SDS011;34170;54.364;18.582;2022-09-09T07:39:46;10.85;;;5.20;;
48363;SDS011;34170;54.364;18.582;2022-09-09T07:42:13;9.85;;;4.80;;
48363;SDS011;34170;54.364;18.582;2022-09-09T07:44:41;8.35;;;4.90;;
48363;SDS011;34170;54.364;18.582;2022-09-09T07:47:12;9.23;;;5.07;;
48363;SDS011;34170;54.364;18.582;2022-09-09T07:49:44;11.70;;;5.47;;
48363;SDS011;34170;54.364;18.582;2022-09-09T07:52:16;12.88;;;5.40;;
48363;SDS011;34170;54.364;18.582;2022-09-09T07:54:50;8.93;;;5.15;;
48363;SDS011;34170;54.364;18.582;2022-09-09T07:57:17;8.77;;;5.25;;
48363;SDS011;34170;54.364;18.582;2022-09-09T07:59:45;8.25;;;5.07;;
48363;SDS011;34170;54.364;18.582;2022-09-09T08:02:13;11.13;;;6.90;;
48363;SDS011;34170;54.364;18.582;2022-09-09T08:04:41;9.23;;;5.00;;
48363;SDS011;34170;54.364;18.582;2022-09-09T08:07:09;7.40;;;4.88;;
48363;SDS011;34170;54.364;18.582;2022-09-09T08:09:44;5.38;;;4.28;;
48363;SDS011;34170;54.364;18.582;2022-09-09T08:12:18;7.63;;;5.53;;
48363;SDS011;34170;54.364;18.582;2022-09-09T08:14:45;8.43;;;5.50;;
48363;SDS011;34170;54.364;18.582;2022-09-09T08:17:13;6.15;;;4.28;;
48363;SDS011;34170;54.364;18.582;2022-09-09T08:19:42;6.65;;;4.50;;
48363;SDS011;34170;54.364;18.582;2022-09-09T08:22:14;8.05;;;4.35;;
48363;SDS011;34170;54.364;18.582;2022-09-09T08:24:41;5.25;;;4.45;;
48363;SDS011;34170;54.364;18.582;2022-09-09T08:27:08;6.90;;;4.78;;
48363;SDS011;34170;54.364;18.582;2022-09-09T08:29:37;9.02;;;4.65;;
48363;SDS011;34170;54.364;18.582;2022-09-09T08:32:05;9.45;;;4.88;;
48363;SDS011;34170;54.364;18.582;2022-09-09T08:34:34;6.82;;;4.82;;
48363;SDS011;34170;54.364;18.582;2022-09-09T08:37:06;8.20;;;4.80;;
48363;SDS011;34170;54.364;18.582;2022-09-09T08:39:37;10.03;;;4.70;;
48363;SDS011;34170;54.364;18.582;2022-09-09T08:42:23;8.70;;;4.72;;
48363;SDS011;34170;54.364;18.582;2022-09-09T08:45:17;10.05;;;5.65;;
48363;SDS011;34170;54.364;18.582;2022-09-09T08:53:25;10.65;;;6.00;;
48363;SDS011;34170;54.364;18.582;2022-09-09T08:56:00;9.67;;;5.27;;
48363;SDS011;34170;54.364;18.582;2022-09-09T08:58:40;12.10;;;5.97;;
48363;SDS011;34170;54.364;18.582;2022-09-09T09:01:24;10.73;;;6.25;;
48363;SDS011;34170;54.364;18.582;2022-09-09T09:12:55;10.88;;;5.57;;
48363;SDS011;34170;54.364;18.582;2022-09-09T09:15:25;8.57;;;5.75;;
48363;SDS011;34170;54.364;18.582;2022-09-09T09:17:59;7.18;;;5.70;;
48363;SDS011;34170;54.364;18.582;2022-09-09T09:23:17;11.18;;;6.10;;
48363;SDS011;34170;54.364;18.582;2022-09-09T09:25:50;11.38;;;6.95;;
48363;SDS011;34170;54.364;18.582;2022-09-09T09:28:24;10.30;;;6.30;;
48363;SDS011;34170;54.364;18.582;2022-09-09T09:31:03;7.28;;;5.38;;
48363;SDS011;34170;54.364;18.582;2022-09-09T09:33:42;9.63;;;6.10;;
48363;SDS011;34170;54.364;18.582;2022-09-09T09:36:19;10.60;;;7.05;;
48363;SDS011;34170;54.364;18.582;2022-09-09T09:38:55;10.15;;;6.82;;
48363;SDS011;34170;54.364;18.582;2022-09-09T09:41:45;10.20;;;6.72;;
48363;SDS011;34170;54.364;18.582;2022-09-09T09:44:27;11.50;;;7.78;;
48363;SDS011;34170;54.364;18.582;2022-09-09T09:47:10;10.35;;;6.97;;
48363;SDS011;34170;54.364;18.582;2022-09-09T09:49:55;11.98;;;7.85;;
48363;SDS011;34170;54.364;18.582;2022-09-09T09:52:30;10.80;;;7.23;;
48363;SDS011;34170;54.364;18.582;2022-09-09T09:55:03;11.98;;;7.75;;
48363;SDS011;34170;54.364;18.582;2022-09-09T09:57:34;8.85;;;7.38;;
48363;SDS011;34170;54.364;18.582;2022-09-09T10:00:14;12.52;;;8.63;;
48363;SDS011;34170;54.364;18.582;2022-09-09T10:02:46;14.52;;;9.55;;
48363;SDS011;34170;54.364;18.582;2022-09-09T10:05:23;17.45;;;12.60;;
48363;SDS011;34170;54.364;18.582;2022-09-09T10:21:49;11.15;;;7.82;;
48363;SDS011;34170;54.364;18.582;2022-09-09T10:30:40;12.23;;;7.07;;
48363;SDS011;34170;54.364;18.582;2022-09-09T10:33:31;11.07;;;7.97;;
48363;SDS011;34170;54.364;18.582;2022-09-09T10:36:12;13.98;;;9.40;;
48363;SDS011;34170;54.364;18.582;2022-09-09T10:38:46;12.70;;;9.95;;
48363;SDS011;34170;54.364;18.582;2022-09-09T10:41:51;14.32;;;10.65;;
48363;SDS011;34170;54.364;18.582;2022-09-09T10:47:32;14.30;;;9.73;;
48363;SDS011;34170;54.364;18.582;2022-09-09T10:55:27;13.70;;;10.35;;
48363;SDS011;34170;54.364;18.582;2022-09-09T10:58:10;14.07;;;9.98;;
48363;SDS011;34170;54.364;18.582;2022-09-09T11:00:45;14.32;;;10.70;;
48363;SDS011;34170;54.364;18.582;2022-09-09T11:03:22;16.35;;;10.20;;
48363;SDS011;34170;54.364;18.582;2022-09-09T11:06:04;14.00;;;10.48;;
48363;SDS011;34170;54.364;18.582;2022-09-09T11:08:34;15.05;;;9.77;;
48363;SDS011;34170;54.364;18.582;2022-09-09T11:18:55;11.90;;;9.32;;
48363;SDS011;34170;54.364;18.582;2022-09-09T11:21:29;13.35;;;9.60;;
48363;SDS011;34170;54.364;18.582;2022-09-09T11:24:50;15.07;;;10.15;;
48363;SDS011;34170;54.364;18.582;2022-09-09T11:26:57;13.55;;;9.55;;
48363;SDS011;34170;54.364;18.582;2022-09-09T11:29:39;13.68;;;10.13;;
48363;SDS011;34170;54.364;18.582;2022-09-09T11:32:20;16.13;;;10.25;;
48363;SDS011;34170;54.364;18.582;2022-09-09T11:40:24;14.90;;;11.20;;
48363;SDS011;34170;54.364;18.582;2022-09-09T11:43:27;16.83;;;11.88;;
48363;SDS011;34170;54.364;18.582;2022-09-09T11:46:07;15.70;;;11.15;;
48363;SDS011;34170;54.364;18.582;2022-09-09T11:48:38;16.73;;;10.55;;
48363;SDS011;34170;54.364;18.582;2022-09-09T11:51:11;15.60;;;11.23;;
48363;SDS011;34170;54.364;18.582;2022-09-09T11:53:52;15.43;;;10.98;;
48363;SDS011;34170;54.364;18.582;2022-09-09T12:05:13;16.48;;;12.57;;
48363;SDS011;34170;54.364;18.582;2022-09-09T12:07:47;16.73;;;11.38;;
48363;SDS011;34170;54.364;18.582;2022-09-09T12:10:30;16.33;;;11.48;;
48363;SDS011;34170;54.364;18.582;2022-09-09T12:13:16;16.60;;;12.20;;
48363;SDS011;34170;54.364;18.582;2022-09-09T12:15:47;13.95;;;11.07;;
48363;SDS011;34170;54.364;18.582;2022-09-09T12:18:21;14.85;;;11.18;;
48363;SDS011;34170;54.364;18.582;2022-09-09T12:20:57;14.27;;;11.00;;
48363;SDS011;34170;54.364;18.582;2022-09-09T12:23:44;17.55;;;12.52;;
48363;SDS011;34170;54.364;18.582;2022-09-09T12:32:10;20.38;;;13.15;;
48363;SDS011;34170;54.364;18.582;2022-09-09T12:40:27;19.45;;;13.60;;
48363;SDS011;34170;54.364;18.582;2022-09-09T12:42:58;23.05;;;16.08;;
48363;SDS011;34170;54.364;18.582;2022-09-09T12:45:31;19.58;;;14.93;;
48363;SDS011;34170;54.364;18.582;2022-09-09T12:48:03;24.50;;;17.60;;
48363;SDS011;34170;54.364;18.582;2022-09-09T12:50:36;24.83;;;18.20;;
48363;SDS011;34170;54.364;18.582;2022-09-09T12:53:09;32.90;;;21.50;;
48363;SDS011;34170;54.364;18.582;2022-09-09T12:55:49;27.77;;;20.75;;
48363;SDS011;34170;54.364;18.582;2022-09-09T12:58:37;26.70;;;20.13;;
48363;SDS011;34170;54.364;18.582;2022-09-09T13:01:17;25.08;;;18.23;;
48363;SDS011;34170;54.364;18.582;2022-09-09T13:03:48;22.08;;;15.48;;
48363;SDS011;34170;54.364;18.582;2022-09-09T13:06:20;20.35;;;16.17;;
48363;SDS011;34170;54.364;18.582;2022-09-09T13:08:59;20.85;;;15.70;;
48363;SDS011;34170;54.364;18.582;2022-09-09T13:11:38;18.30;;;14.52;;
48363;SDS011;34170;54.364;18.582;2022-09-09T13:17:06;21.75;;;14.05;;
48363;SDS011;34170;54.364;18.582;2022-09-09T13:19:44;16.35;;;12.27;;
48363;SDS011;34170;54.364;18.582;2022-09-09T13:22:29;22.20;;;14.50;;
48363;SDS011;34170;54.364;18.582;2022-09-09T13:27:38;19.88;;;14.00;;
48363;SDS011;34170;54.364;18.582;2022-09-09T13:30:19;21.10;;;15.38;;
48363;SDS011;34170;54.364;18.582;2022-09-09T13:33:51;27.55;;;17.85;;
48363;SDS011;34170;54.364;18.582;2022-09-09T13:35:57;20.52;;;15.90;;
48363;SDS011;34170;54.364;18.582;2022-09-09T13:38:32;25.93;;;18.10;;
48363;SDS011;34170;54.364;18.582;2022-09-09T13:41:03;27.95;;;17.85;;
48363;SDS011;34170;54.364;18.582;2022-09-09T13:43:33;23.33;;;17.23;;
48363;SDS011;34170;54.364;18.582;2022-09-09T13:46:20;25.05;;;17.40;;
48363;SDS011;34170;54.364;18.582;2022-09-09T13:49:01;25.42;;;18.27;;
48363;SDS011;34170;54.364;18.582;2022-09-09T13:51:39;30.58;;;21.10;;
48363;SDS011;34170;54.364;18.582;2022-09-09T13:54:09;28.70;;;19.92;;
48363;SDS011;34170;54.364;18.582;2022-09-09T13:56:38;34.28;;;22.50;;
48363;SDS011;34170;54.364;18.582;2022-09-09T13:59:14;28.88;;;21.20;;
48363;SDS011;34170;54.364;18.582;2022-09-09T14:01:43;35.80;;;24.40;;
48363;SDS011;34170;54.364;18.582;2022-09-09T14:04:11;33.85;;;23.15;;
48363;SDS011;34170;54.364;18.582;2022-09-09T14:06:38;35.10;;;24.17;;
48363;SDS011;34170;54.364;18.582;2022-09-09T14:09:07;38.05;;;24.70;;
48363;SDS011;34170;54.364;18.582;2022-09-09T14:11:37;37.50;;;23.93;;
48363;SDS011;34170;54.364;18.582;2022-09-09T14:14:05;42.92;;;26.38;;
48363;SDS011;34170;54.364;18.582;2022-09-09T14:16:32;37.45;;;23.63;;
48363;SDS011;34170;54.364;18.582;2022-09-09T14:19:00;36.97;;;25.02;;
48363;SDS011;34170;54.364;18.582;2022-09-09T14:21:27;47.08;;;26.80;;
48363;SDS011;34170;54.364;18.582;2022-09-09T14:23:55;41.38;;;27.33;;
48363;SDS011;34170;54.364;18.582;2022-09-09T14:26:25;43.03;;;25.75;;
48363;SDS011;34170;54.364;18.582;2022-09-09T14:28:52;43.40;;;29.13;;
48363;SDS011;34170;54.364;18.582;2022-09-09T14:31:22;43.28;;;27.70;;
48363;SDS011;34170;54.364;18.582;2022-09-09T14:33:51;44.60;;;28.15;;
48363;SDS011;34170;54.364;18.582;2022-09-09T14:36:19;45.28;;;28.70;;
48363;SDS011;34170;54.364;18.582;2022-09-09T14:38:47;46.15;;;27.83;;
48363;SDS011;34170;54.364;18.582;2022-09-09T14:41:15;46.40;;;27.55;;
48363;SDS011;34170;54.364;18.582;2022-09-09T14:43:44;46.33;;;28.33;;
48363;SDS011;34170;54.364;18.582;2022-09-09T14:46:13;48.20;;;29.42;;
48363;SDS011;34170;54.364;18.582;2022-09-09T14:48:42;46.80;;;28.60;;
48363;SDS011;34170;54.364;18.582;2022-09-09T14:51:20;47.28;;;29.83;;
48363;SDS011;34170;54.364;18.582;2022-09-09T14:53:57;48.88;;;30.95;;
48363;SDS011;34170;54.364;18.582;2022-09-09T14:56:27;50.17;;;30.30;;
48363;SDS011;34170;54.364;18.582;2022-09-09T14:58:57;50.67;;;30.03;;
48363;SDS011;34170;54.364;18.582;2022-09-09T15:01:28;47.03;;;30.02;;
48363;SDS011;34170;54.364;18.582;2022-09-09T15:03:58;49.13;;;29.73;;
48363;SDS011;34170;54.364;18.582;2022-09-09T15:06:27;49.65;;;31.20;;
48363;SDS011;34170;54.364;18.582;2022-09-09T15:08:58;48.80;;;30.70;;
48363;SDS011;34170;54.364;18.582;2022-09-09T15:11:27;49.92;;;31.85;;
48363;SDS011;34170;54.364;18.582;2022-09-09T15:14:01;155.10;;;37.42;;
48363;SDS011;34170;54.364;18.582;2022-09-09T15:16:28;51.60;;;31.35;;
48363;SDS011;34170;54.364;18.582;2022-09-09T15:18:56;56.05;;;32.63;;
48363;SDS011;34170;54.364;18.582;2022-09-09T15:21:28;53.10;;;33.05;;
48363;SDS011;34170;54.364;18.582;2022-09-09T15:23:57;58.80;;;34.08;;
48363;SDS011;34170;54.364;18.582;2022-09-09T15:26:26;57.28;;;32.97;;
48363;SDS011;34170;54.364;18.582;2022-09-09T15:28:54;54.92;;;32.25;;
48363;SDS011;34170;54.364;18.582;2022-09-09T15:31:22;55.92;;;33.95;;
48363;SDS011;34170;54.364;18.582;2022-09-09T15:33:52;60.13;;;35.75;;
48363;SDS011;34170;54.364;18.582;2022-09-09T15:36:37;77.13;;;36.45;;
48363;SDS011;34170;54.364;18.582;2022-09-09T15:39:07;64.75;;;35.72;;
48363;SDS011;34170;54.364;18.582;2022-09-09T15:41:39;70.63;;;37.38;;
48363;SDS011;34170;54.364;18.582;2022-09-09T15:44:07;79.75;;;36.47;;
48363;SDS011;34170;54.364;18.582;2022-09-09T15:46:37;63.28;;;34.65;;
48363;SDS011;34170;54.364;18.582;2022-09-09T15:49:19;60.28;;;36.60;;
48363;SDS011;34170;54.364;18.582;2022-09-09T15:51:55;65.45;;;36.92;;
48363;SDS011;34170;54.364;18.582;2022-09-09T15:54:24;63.85;;;37.33;;
48363;SDS011;34170;54.364;18.582;2022-09-09T15:56:56;132.82;;;42.10;;
48363;SDS011;34170;54.364;18.582;2022-09-09T15:59:26;86.45;;;39.05;;
48363;SDS011;34170;54.364;18.582;2022-09-09T16:01:55;66.90;;;37.00;;
48363;SDS011;34170;54.364;18.582;2022-09-09T16:04:23;65.60;;;36.83;;
48363;SDS011;34170;54.364;18.582;2022-09-09T16:07:01;65.88;;;36.45;;
48363;SDS011;34170;54.364;18.582;2022-09-09T16:09:31;68.82;;;38.50;;
48363;SDS011;34170;54.364;18.582;2022-09-09T16:11:59;68.82;;;36.63;;
48363;SDS011;34170;54.364;18.582;2022-09-09T16:14:33;91.22;;;39.20;;
48363;SDS011;34170;54.364;18.582;2022-09-09T16:17:02;68.45;;;38.22;;
48363;SDS011;34170;54.364;18.582;2022-09-09T16:19:30;96.78;;;40.20;;
48363;SDS011;34170;54.364;18.582;2022-09-09T16:21:58;80.15;;;41.08;;
48363;SDS011;34170;54.364;18.582;2022-09-09T16:24:25;74.10;;;40.15;;
48363;SDS011;34170;54.364;18.582;2022-09-09T16:26:53;112.35;;;44.03;;
48363;SDS011;34170;54.364;18.582;2022-09-09T16:29:21;151.73;;;47.13;;
48363;SDS011;34170;54.364;18.582;2022-09-09T16:31:49;132.13;;;44.08;;
48363;SDS011;34170;54.364;18.582;2022-09-09T16:34:17;97.50;;;40.63;;
48363;SDS011;34170;54.364;18.582;2022-09-09T16:36:45;89.07;;;42.17;;
48363;SDS011;34170;54.364;18.582;2022-09-09T16:39:14;115.22;;;44.28;;
48363;SDS011;34170;54.364;18.582;2022-09-09T16:41:44;84.55;;;40.42;;
48363;SDS011;34170;54.364;18.582;2022-09-09T16:44:13;108.35;;;44.60;;
48363;SDS011;34170;54.364;18.582;2022-09-09T16:46:42;131.55;;;46.55;;
48363;SDS011;34170;54.364;18.582;2022-09-09T16:49:11;162.25;;;46.90;;
48363;SDS011;34170;54.364;18.582;2022-09-09T16:51:43;71.63;;;38.78;;
48363;SDS011;34170;54.364;18.582;2022-09-09T16:54:15;97.10;;;43.30;;
48363;SDS011;34170;54.364;18.582;2022-09-09T16:56:44;160.75;;;45.15;;
48363;SDS011;34170;54.364;18.582;2022-09-09T16:59:14;96.43;;;43.83;;